createdAt,value
2018-09-17T00:02:06.792Z,2.23
2018-09-17T00:04:35.272Z,2.70
2018-09-17T00:07:03.796Z,2.93
2018-09-17T00:09:32.282Z,2.60
2018-09-17T00:12:00.881Z,2.50
2018-09-17T00:14:29.342Z,2.30
2018-09-17T00:16:57.869Z,2.67
2018-09-17T00:19:26.395Z,2.50
2018-09-17T00:21:54.922Z,2.60
2018-09-17T00:24:23.429Z,2.30
2018-09-17T00:26:51.987Z,2.10
2018-09-17T00:29:20.457Z,2.60
2018-09-17T00:31:48.937Z,2.43
2018-09-17T00:34:17.411Z,2.40
2018-09-17T00:36:45.876Z,2.60
2018-09-17T00:39:14.385Z,2.80
2018-09-17T00:41:42.869Z,2.80
2018-09-17T00:44:11.405Z,2.73
2018-09-17T00:46:39.894Z,2.73
2018-09-17T00:49:08.498Z,2.67
2018-09-17T00:51:37.125Z,2.40
2018-09-17T00:54:05.706Z,2.80
2018-09-17T00:56:34.256Z,2.40
2018-09-17T00:59:03.704Z,2.33
2018-09-17T01:01:32.291Z,2.43
2018-09-17T01:04:00.876Z,2.13
2018-09-17T01:06:29.498Z,2.67
2018-09-17T01:08:58.015Z,2.30
2018-09-17T01:11:26.905Z,2.60
2018-09-17T01:13:56.668Z,2.40
2018-09-17T01:16:25.314Z,2.20
2018-09-17T01:18:53.959Z,2.13
2018-09-17T01:21:22.563Z,2.33
2018-09-17T01:23:51.150Z,2.30
2018-09-17T01:26:19.686Z,2.23
2018-09-17T01:28:48.241Z,2.40
2018-09-17T01:31:16.789Z,2.20
2018-09-17T01:33:45.446Z,1.97
2018-09-17T01:36:14.031Z,2.40
2018-09-17T01:38:42.562Z,2.47
2018-09-17T01:41:11.146Z,2.20
2018-09-17T01:43:39.689Z,2.40
2018-09-17T01:46:08.240Z,2.43
2018-09-17T01:48:36.687Z,2.60
2018-09-17T01:51:05.178Z,2.20
2018-09-17T01:53:33.596Z,2.80
2018-09-17T01:56:02.081Z,2.40
2018-09-17T01:58:30.529Z,2.20
2018-09-17T02:00:59.095Z,2.67
2018-09-17T02:03:27.550Z,2.73
2018-09-17T02:05:55.968Z,2.50
2018-09-17T02:08:24.473Z,2.40
2018-09-17T02:10:52.919Z,2.77
2018-09-17T02:13:21.642Z,2.20
2018-09-17T02:15:50.098Z,2.20
2018-09-17T02:18:18.655Z,3.40
2018-09-17T02:20:47.174Z,2.70
2018-09-17T02:23:15.611Z,2.80
2018-09-17T02:25:44.071Z,2.57
2018-09-17T02:28:12.568Z,2.90
2018-09-17T02:30:40.977Z,2.83
2018-09-17T02:33:09.452Z,3.03
2018-09-17T02:35:38.094Z,2.90
2018-09-17T02:38:06.663Z,3.00
2018-09-17T02:40:35.148Z,3.07
2018-09-17T02:43:03.620Z,3.00
2018-09-17T02:45:32.071Z,3.17
2018-09-17T02:48:00.488Z,3.40
2018-09-17T02:50:28.975Z,3.20
2018-09-17T02:52:57.479Z,3.20
2018-09-17T02:55:25.992Z,3.17
2018-09-17T02:57:54.453Z,2.80
2018-09-17T03:00:22.903Z,3.10
2018-09-17T03:02:52.574Z,2.73
2018-09-17T03:05:21.042Z,3.17
2018-09-17T03:07:49.536Z,3.17
2018-09-17T03:10:18.173Z,2.97
2018-09-17T03:12:46.627Z,2.80
2018-09-17T03:15:55.939Z,2.87
2018-09-17T03:18:38.014Z,2.97
2018-09-17T03:21:07.502Z,3.07
2018-09-17T03:23:38.035Z,2.80
2018-09-17T03:26:06.576Z,2.67
2018-09-17T03:28:35.025Z,4.43
2018-09-17T03:31:03.514Z,2.83
2018-09-17T03:33:31.994Z,2.60
2018-09-17T03:36:00.571Z,2.80
2018-09-17T03:38:38.466Z,2.70
2018-09-17T03:41:07.782Z,2.90
2018-09-17T03:43:37.165Z,2.73
2018-09-17T03:46:05.679Z,2.50
2018-09-17T03:48:35.003Z,2.63
2018-09-17T03:51:04.263Z,3.00
2018-09-17T03:53:33.042Z,2.97
2018-09-17T03:56:01.591Z,2.83
2018-09-17T03:58:30.546Z,3.00
2018-09-17T04:00:59.792Z,2.60
2018-09-17T04:03:28.265Z,3.13
2018-09-17T04:05:56.923Z,2.80
2018-09-17T04:08:25.448Z,3.20
2018-09-17T04:10:53.954Z,3.10
2018-09-17T04:13:22.418Z,3.00
2018-09-17T04:15:50.924Z,3.17
2018-09-17T04:18:19.482Z,3.40
2018-09-17T04:20:47.947Z,3.10
2018-09-17T04:23:20.783Z,2.77
2018-09-17T04:25:49.477Z,2.70
2018-09-17T04:28:18.021Z,3.17
2018-09-17T04:30:46.462Z,2.97
2018-09-17T04:33:16.188Z,3.20
2018-09-17T04:35:45.471Z,2.77
2018-09-17T04:38:16.491Z,3.40
2018-09-17T04:40:45.020Z,3.00
2018-09-17T04:43:13.511Z,3.27
2018-09-17T04:45:42.172Z,3.20
2018-09-17T04:48:10.722Z,3.30
2018-09-17T04:50:40.152Z,3.20
2018-09-17T04:53:08.666Z,3.27
2018-09-17T04:55:37.976Z,3.30
2018-09-17T04:58:06.770Z,3.20
2018-09-17T05:00:35.905Z,3.53
2018-09-17T05:03:04.905Z,4.43
2018-09-17T05:05:33.378Z,3.60
2018-09-17T05:08:02.141Z,3.40
2018-09-17T05:10:30.971Z,3.60
2018-09-17T05:13:00.443Z,2.80
2018-09-17T05:15:29.412Z,3.03
2018-09-17T05:17:57.970Z,3.10
2018-09-17T05:20:26.795Z,3.33
2018-09-17T05:22:55.255Z,3.30
2018-09-17T05:25:23.769Z,3.80
2018-09-17T05:27:52.250Z,3.60
2018-09-17T05:30:20.747Z,3.47
2018-09-17T05:32:49.305Z,3.37
2018-09-17T05:35:17.847Z,3.90
2018-09-17T05:37:46.426Z,3.57
2018-09-17T05:40:14.977Z,3.30
2018-09-17T05:42:43.389Z,3.47
2018-09-17T05:45:11.875Z,3.30
2018-09-17T05:47:40.315Z,3.57
2018-09-17T05:50:08.859Z,3.80
2018-09-17T05:52:37.456Z,3.57
2018-09-17T05:55:05.977Z,4.10
2018-09-17T05:57:34.440Z,5.10
2018-09-17T06:00:02.912Z,5.90
2018-09-17T06:02:31.390Z,6.50
2018-09-17T06:04:59.929Z,7.10
2018-09-17T06:07:28.439Z,8.23
2018-09-17T06:09:56.963Z,7.97
2018-09-17T06:12:25.513Z,5.80
2018-09-17T06:14:54.021Z,6.80
2018-09-17T06:17:22.554Z,4.60
2018-09-17T06:19:50.998Z,4.50
2018-09-17T06:22:19.541Z,3.60
2018-09-17T06:27:49.677Z,3.13
2018-09-17T06:30:18.199Z,3.30
2018-09-17T06:32:46.740Z,3.00
2018-09-17T06:35:15.268Z,2.63
2018-09-17T06:37:43.812Z,2.77
2018-09-17T06:40:12.315Z,3.03
2018-09-17T06:42:40.784Z,2.70
2018-09-17T06:45:09.317Z,2.90
2018-09-17T06:47:37.802Z,2.70
2018-09-17T06:50:06.310Z,2.90
2018-09-17T06:52:34.849Z,2.80
2018-09-17T06:55:03.356Z,2.80
2018-09-17T06:57:31.840Z,2.77
2018-09-17T07:00:00.412Z,2.93
2018-09-17T07:02:28.875Z,2.70
2018-09-17T07:04:57.511Z,3.43
2018-09-17T07:07:25.986Z,2.83
2018-09-17T07:09:54.491Z,2.63
2018-09-17T07:12:22.992Z,2.70
2018-09-17T07:14:51.496Z,2.80
2018-09-17T07:17:20.580Z,3.10
2018-09-17T07:19:49.093Z,2.90
2018-09-17T07:22:17.601Z,3.03
2018-09-17T07:24:46.108Z,3.10
2018-09-17T07:27:14.624Z,3.03
2018-09-17T07:29:43.123Z,3.33
2018-09-17T07:32:11.589Z,2.97
2018-09-17T07:34:40.127Z,3.57
2018-09-17T07:37:08.633Z,4.07
2018-09-17T07:39:37.150Z,3.27
2018-09-17T07:42:05.660Z,2.93
2018-09-17T07:44:34.171Z,3.33
2018-09-17T07:47:02.645Z,3.80
2018-09-17T07:49:31.164Z,3.30
2018-09-17T07:51:59.711Z,3.80
2018-09-17T07:54:28.223Z,4.20
2018-09-17T07:56:56.704Z,3.80
2018-09-17T07:59:25.226Z,5.07
2018-09-17T08:01:53.756Z,4.93
2018-09-17T08:04:22.207Z,4.13
2018-09-17T08:06:50.721Z,3.80
2018-09-17T08:09:19.231Z,4.30
2018-09-17T08:11:47.765Z,3.60
2018-09-17T08:14:16.291Z,4.00
2018-09-17T08:16:44.898Z,3.60
2018-09-17T08:19:13.452Z,3.53
2018-09-17T08:21:41.962Z,3.77
2018-09-17T08:24:10.468Z,2.87
2018-09-17T08:26:38.969Z,3.50
2018-09-17T08:29:07.561Z,3.13
2018-09-17T08:31:36.062Z,3.83
2018-09-17T08:34:04.639Z,3.20
2018-09-17T08:36:33.147Z,3.00
2018-09-17T08:39:01.707Z,2.90
2018-09-17T08:41:30.211Z,3.43
2018-09-17T08:43:58.697Z,3.50
2018-09-17T08:46:27.243Z,3.60
2018-09-17T08:48:55.702Z,2.97
2018-09-17T08:51:24.212Z,3.40
2018-09-17T08:53:52.678Z,2.93
2018-09-17T08:56:26.465Z,2.90
2018-09-17T08:58:59.242Z,3.27
2018-09-17T09:01:34.047Z,3.50
2018-09-17T09:04:08.047Z,3.00
2018-09-17T09:06:41.702Z,3.63
2018-09-17T09:09:11.606Z,3.20
2018-09-17T09:11:45.370Z,3.80
2018-09-17T09:14:19.181Z,3.60
2018-09-17T09:16:47.650Z,3.60
2018-09-17T09:19:16.151Z,3.30
2018-09-17T09:21:44.628Z,3.60
2018-09-17T09:24:13.136Z,3.57
2018-09-17T09:26:41.699Z,4.23
2018-09-17T09:29:10.171Z,4.07
2018-09-17T09:31:38.659Z,3.83
2018-09-17T09:34:07.318Z,3.37
2018-09-17T09:36:35.843Z,3.40
2018-09-17T09:39:06.640Z,3.20
2018-09-17T09:41:35.113Z,3.40
2018-09-17T09:44:03.629Z,3.20
2018-09-17T09:46:32.123Z,3.73
2018-09-17T09:49:00.626Z,3.17
2018-09-17T09:51:29.113Z,2.93
2018-09-17T09:53:57.610Z,3.30
2018-09-17T09:56:26.110Z,3.13
2018-09-17T09:58:54.600Z,4.17
2018-09-17T10:01:26.953Z,3.83
2018-09-17T10:04:00.857Z,3.47
2018-09-17T10:06:29.401Z,2.73
2018-09-17T10:09:03.175Z,3.57
2018-09-17T10:11:36.981Z,3.23
2018-09-17T10:14:10.752Z,2.97
2018-09-17T10:16:43.472Z,3.40
2018-09-17T10:19:17.418Z,3.50
2018-09-17T10:21:45.920Z,3.27
2018-09-17T10:24:14.381Z,2.70
2018-09-17T10:26:42.906Z,2.60
2018-09-17T10:29:11.370Z,2.70
2018-09-17T10:31:39.909Z,2.30
2018-09-17T10:34:08.538Z,2.77
2018-09-17T10:36:37.311Z,2.43
2018-09-17T10:39:08.571Z,2.50
2018-09-17T10:41:37.148Z,2.60
2018-09-17T10:44:05.630Z,2.50
2018-09-17T10:46:34.354Z,2.70
2018-09-17T10:49:02.825Z,2.60
2018-09-17T10:51:31.347Z,2.80
2018-09-17T10:54:00.074Z,2.43
2018-09-17T10:56:28.535Z,2.90
2018-09-17T10:58:57.021Z,2.23
2018-09-17T11:01:25.520Z,2.20
2018-09-17T11:03:54.011Z,2.20
2018-09-17T11:06:22.506Z,2.60
2018-09-17T11:08:51.030Z,2.20
2018-09-17T11:11:19.475Z,2.30
2018-09-17T11:13:47.953Z,1.90
2018-09-17T11:16:16.422Z,2.23
2018-09-17T11:18:44.961Z,2.20
2018-09-17T11:21:13.473Z,2.10
2018-09-17T11:23:41.984Z,2.43
2018-09-17T11:26:10.457Z,1.80
2018-09-17T11:28:38.972Z,2.20
2018-09-17T11:31:07.445Z,1.97
2018-09-17T11:33:36.006Z,1.77
2018-09-17T11:36:04.519Z,2.20
2018-09-17T11:38:33.018Z,2.00
2018-09-17T11:41:01.469Z,1.80
2018-09-17T11:43:30.051Z,2.07
2018-09-17T11:45:58.578Z,2.10
2018-09-17T11:48:27.068Z,1.80
2018-09-17T11:50:55.581Z,1.90
2018-09-17T11:53:24.108Z,1.60
2018-09-17T11:55:52.583Z,1.80
2018-09-17T11:58:21.095Z,2.10
2018-09-17T12:00:54.709Z,1.90
2018-09-17T12:03:28.690Z,2.03
2018-09-17T12:05:59.256Z,2.00
2018-09-17T12:08:27.743Z,1.60
2018-09-17T12:10:56.262Z,1.73
2018-09-17T12:13:24.860Z,2.00
2018-09-17T12:15:53.363Z,1.90
2018-09-17T12:18:21.839Z,2.00
2018-09-17T12:20:50.326Z,1.77
2018-09-17T12:23:18.855Z,1.77
2018-09-17T12:25:47.398Z,1.60
2018-09-17T12:28:15.896Z,1.70
2018-09-17T12:30:44.368Z,1.77
2018-09-17T12:33:13.152Z,1.57
2018-09-17T12:35:41.723Z,1.73
2018-09-17T12:38:10.203Z,1.87
2018-09-17T12:40:38.670Z,1.70
2018-09-17T12:43:07.167Z,1.90
2018-09-17T12:45:35.660Z,1.83
2018-09-17T12:48:04.123Z,1.53
2018-09-17T12:50:32.721Z,1.83
2018-09-17T12:53:01.211Z,1.73
2018-09-17T12:55:29.702Z,1.90
2018-09-17T12:57:58.180Z,2.10
2018-09-17T13:00:26.717Z,1.77
2018-09-17T13:02:55.167Z,1.63
2018-09-17T13:05:23.691Z,1.80
2018-09-17T13:07:52.168Z,1.93
2018-09-17T13:10:20.712Z,1.90
2018-09-17T13:12:49.201Z,1.80
2018-09-17T13:15:17.664Z,2.00
2018-09-17T13:17:46.201Z,1.60
2018-09-17T13:20:14.712Z,1.80
2018-09-17T13:22:43.195Z,1.60
2018-09-17T13:25:11.657Z,1.60
2018-09-17T13:27:40.127Z,2.00
2018-09-17T13:30:08.668Z,1.63
2018-09-17T13:32:37.310Z,1.80
2018-09-17T13:35:06.350Z,2.00
2018-09-17T13:37:34.804Z,1.70
2018-09-17T13:40:03.343Z,2.30
2018-09-17T13:42:31.829Z,1.73
2018-09-17T13:45:00.329Z,1.50
2018-09-17T13:47:28.824Z,1.70
2018-09-17T13:49:57.313Z,1.40
2018-09-17T13:52:25.838Z,1.90
2018-09-17T13:54:54.362Z,1.40
2018-09-17T13:57:22.871Z,1.50
2018-09-17T13:59:51.418Z,1.50
2018-09-17T14:02:19.867Z,1.80
2018-09-17T14:04:48.320Z,1.73
2018-09-17T14:07:16.785Z,1.90
2018-09-17T14:09:45.297Z,2.13
2018-09-17T14:12:13.811Z,1.80
2018-09-17T14:14:42.294Z,1.60
2018-09-17T14:17:10.805Z,1.87
2018-09-17T14:19:39.336Z,1.60
2018-09-17T14:22:07.883Z,1.80
2018-09-17T14:24:36.359Z,1.70
2018-09-17T14:27:04.827Z,1.63
2018-09-17T14:29:33.295Z,2.00
2018-09-17T14:32:07.182Z,1.63
2018-09-17T14:34:35.662Z,1.83
2018-09-17T14:37:04.177Z,1.67
2018-09-17T14:39:32.641Z,1.70
2018-09-17T14:42:01.157Z,1.57
2018-09-17T14:44:29.681Z,1.70
2018-09-17T14:46:58.167Z,1.93
2018-09-17T14:49:26.680Z,1.67
2018-09-17T14:51:55.138Z,1.70
2018-09-17T14:54:23.697Z,1.63
2018-09-17T14:56:52.062Z,1.70
2018-09-17T14:59:21.682Z,1.70
2018-09-17T15:01:50.176Z,1.70
2018-09-17T15:04:18.720Z,1.60
2018-09-17T15:06:47.151Z,1.73
2018-09-17T15:09:15.770Z,1.77
2018-09-17T15:11:44.256Z,1.87
2018-09-17T15:14:13.514Z,1.83
2018-09-17T15:16:42.397Z,1.97
2018-09-17T15:19:10.836Z,1.80
2018-09-17T15:21:39.304Z,1.90
2018-09-17T15:24:07.911Z,1.80
2018-09-17T15:26:36.348Z,1.97
2018-09-17T15:29:04.819Z,1.50
2018-09-17T15:31:33.394Z,1.77
2018-09-17T15:34:02.047Z,1.70
2018-09-17T15:36:30.551Z,1.70
2018-09-17T15:38:59.046Z,1.80
2018-09-17T15:41:27.705Z,1.80
2018-09-17T15:43:56.129Z,1.70
2018-09-17T15:46:24.660Z,1.80
2018-09-17T15:48:53.224Z,1.70
2018-09-17T15:51:22.029Z,1.73
2018-09-17T15:53:51.076Z,1.80
2018-09-17T15:56:19.923Z,1.83
2018-09-17T15:58:48.476Z,1.60
2018-09-17T16:01:18.137Z,1.67
2018-09-17T16:03:46.777Z,1.60
2018-09-17T16:06:15.266Z,1.60
2018-09-17T16:08:44.026Z,1.80
2018-09-17T16:11:12.653Z,1.80
2018-09-17T16:13:41.091Z,2.07
2018-09-17T16:16:09.663Z,2.03
2018-09-17T16:18:38.213Z,1.50
2018-09-17T16:21:07.765Z,1.60
2018-09-17T16:23:36.216Z,1.90
2018-09-17T16:26:04.710Z,1.90
2018-09-17T16:28:33.258Z,1.70
2018-09-17T16:31:01.748Z,1.80
2018-09-17T16:33:30.503Z,1.80
2018-09-17T16:35:59.022Z,1.90
2018-09-17T16:38:27.489Z,2.00
2018-09-17T16:40:56.091Z,2.00
2018-09-17T16:43:25.528Z,1.97
2018-09-17T16:45:53.999Z,2.43
2018-09-17T16:48:22.561Z,2.20
2018-09-17T16:50:51.353Z,2.53
2018-09-17T16:53:20.963Z,2.20
2018-09-17T16:55:50.278Z,2.00
2018-09-17T16:58:18.797Z,2.20
2018-09-17T17:00:47.433Z,3.27
2018-09-17T17:03:16.149Z,2.57
2018-09-17T17:05:44.679Z,2.40
2018-09-17T17:08:13.337Z,2.30
2018-09-17T17:10:41.859Z,2.37
2018-09-17T17:13:10.447Z,2.50
2018-09-17T17:15:38.981Z,2.47
2018-09-17T17:18:07.538Z,2.30
2018-09-17T17:20:35.994Z,2.40
2018-09-17T17:23:04.611Z,1.93
2018-09-17T17:25:33.092Z,1.83
2018-09-17T17:28:01.632Z,2.00
2018-09-17T17:30:30.118Z,2.27
2018-09-17T17:32:58.644Z,2.20
2018-09-17T17:35:27.242Z,2.10
2018-09-17T17:37:55.792Z,2.00
2018-09-17T17:40:24.385Z,2.10
2018-09-17T17:42:52.818Z,2.10
2018-09-17T17:45:21.396Z,2.13
2018-09-17T17:47:49.881Z,1.77
2018-09-17T17:50:18.458Z,2.23
2018-09-17T17:52:46.920Z,2.00
2018-09-17T17:55:16.284Z,2.13
2018-09-17T17:57:44.796Z,2.20
2018-09-17T18:00:13.337Z,1.97
2018-09-17T18:02:41.850Z,2.00
2018-09-17T18:05:10.341Z,1.97
2018-09-17T18:07:38.907Z,1.93
2018-09-17T18:10:07.494Z,2.10
2018-09-17T18:12:36.039Z,2.27
2018-09-17T18:15:04.714Z,2.20
2018-09-17T18:17:33.221Z,2.40
2018-09-17T18:20:01.894Z,2.67
2018-09-17T18:22:30.481Z,2.47
2018-09-17T18:24:59.059Z,2.10
2018-09-17T18:27:27.620Z,2.10
2018-09-17T18:29:56.180Z,2.03
2018-09-17T18:32:24.702Z,2.00
2018-09-17T18:34:53.250Z,2.00
2018-09-17T18:37:21.817Z,2.47
2018-09-17T18:39:50.433Z,2.30
2018-09-17T18:42:19.463Z,2.17
2018-09-17T18:44:48.355Z,2.50
2018-09-17T18:47:16.935Z,2.47
2018-09-17T18:49:45.585Z,2.20
2018-09-17T18:52:14.224Z,2.20
2018-09-17T18:54:42.694Z,2.40
2018-09-17T18:57:13.222Z,2.30
2018-09-17T18:59:41.895Z,2.50
2018-09-17T19:02:10.428Z,2.10
2018-09-17T19:04:38.927Z,2.00
2018-09-17T19:07:07.477Z,2.00
2018-09-17T19:09:41.304Z,2.40
2018-09-17T19:12:09.976Z,2.07
2018-09-17T19:14:43.985Z,2.10
2018-09-17T19:17:17.844Z,2.20
2018-09-17T19:19:46.353Z,2.13
2018-09-17T19:22:20.194Z,2.00
2018-09-17T19:24:48.588Z,2.60
2018-09-17T19:27:17.077Z,2.30
2018-09-17T19:29:45.571Z,2.60
2018-09-17T19:32:14.093Z,2.53
2018-09-17T19:34:42.687Z,2.97
2018-09-17T19:37:16.445Z,2.67
2018-09-17T19:39:50.437Z,2.90
2018-09-17T19:42:18.918Z,2.70
2018-09-17T19:44:53.549Z,2.70
2018-09-17T19:47:22.065Z,2.40
2018-09-17T19:49:50.586Z,2.53
2018-09-17T19:52:22.475Z,2.60
2018-09-17T19:54:51.089Z,2.23
2018-09-17T19:57:25.137Z,2.33
2018-09-17T19:59:55.982Z,2.60
2018-09-17T20:02:24.870Z,2.60
2018-09-17T20:04:58.797Z,2.57
2018-09-17T20:07:27.288Z,2.60
2018-09-17T20:09:55.758Z,2.57
2018-09-17T20:12:24.262Z,2.83
2018-09-17T20:14:52.735Z,2.90
2018-09-17T20:17:21.245Z,2.80
2018-09-17T20:19:49.805Z,2.80
2018-09-17T20:22:18.990Z,2.73
2018-09-17T20:24:47.455Z,2.93
2018-09-17T20:27:15.952Z,2.57
2018-09-17T20:29:44.491Z,2.87
2018-09-17T20:32:12.990Z,3.00
2018-09-17T20:34:41.488Z,2.20
2018-09-17T20:37:09.953Z,2.37
2018-09-17T20:39:38.459Z,2.70
2018-09-17T20:42:06.949Z,2.57
2018-09-17T20:44:35.499Z,2.97
2018-09-17T20:47:03.992Z,2.67
2018-09-17T20:49:32.473Z,2.67
2018-09-17T20:52:01.086Z,2.97
2018-09-17T20:54:29.563Z,2.87
2018-09-17T20:56:58.072Z,2.73
2018-09-17T20:59:26.591Z,2.83
2018-09-17T21:01:55.110Z,2.80
2018-09-17T21:04:23.705Z,3.03
2018-09-17T21:06:52.285Z,3.07
2018-09-17T21:09:20.857Z,2.70
2018-09-17T21:11:49.354Z,4.20
2018-09-17T21:14:17.829Z,3.17
2018-09-17T21:16:46.333Z,2.83
2018-09-17T21:19:15.046Z,2.83
2018-09-17T21:21:43.472Z,3.17
2018-09-17T21:24:12.801Z,2.93
2018-09-17T21:26:41.295Z,2.77
2018-09-17T21:29:09.796Z,3.07
2018-09-17T21:31:38.257Z,3.27
2018-09-17T21:34:06.834Z,2.87
2018-09-17T21:36:35.368Z,2.90
2018-09-17T21:39:05.816Z,3.00
2018-09-17T21:41:34.284Z,2.80
2018-09-17T21:44:02.994Z,3.20
2018-09-17T21:46:31.491Z,2.93
2018-09-17T21:49:00.027Z,3.03
2018-09-17T21:51:28.506Z,2.70
2018-09-17T21:53:57.053Z,2.70
2018-09-17T21:56:25.678Z,2.77
2018-09-17T21:58:54.201Z,2.90
2018-09-17T22:01:22.703Z,2.60
2018-09-17T22:03:51.233Z,3.03
2018-09-17T22:06:19.718Z,2.73
2018-09-17T22:08:48.274Z,3.30
2018-09-17T22:11:16.726Z,2.43
2018-09-17T22:13:45.358Z,2.70
2018-09-17T22:16:13.836Z,3.23
2018-09-17T22:18:42.406Z,3.13
2018-09-17T22:21:10.865Z,3.30
2018-09-17T22:23:39.400Z,2.70
2018-09-17T22:26:07.952Z,3.60
2018-09-17T22:28:36.555Z,3.33
2018-09-17T22:31:05.053Z,3.00
2018-09-17T22:33:33.991Z,2.73
2018-09-17T22:36:02.863Z,2.97
2018-09-17T22:38:31.346Z,3.17
2018-09-17T22:40:59.932Z,2.60
2018-09-17T22:43:28.573Z,2.57
2018-09-17T22:45:57.218Z,2.93
2018-09-17T22:48:25.792Z,2.93
2018-09-17T22:50:54.317Z,2.93
2018-09-17T22:53:22.942Z,2.83
2018-09-17T22:55:51.617Z,2.60
2018-09-17T22:58:20.098Z,2.90
2018-09-17T23:00:48.678Z,2.87
2018-09-17T23:03:17.144Z,3.10
2018-09-17T23:05:45.647Z,3.47
2018-09-17T23:08:15.403Z,3.13
2018-09-17T23:10:45.551Z,3.10
2018-09-17T23:13:15.241Z,3.43
2018-09-17T23:15:43.864Z,2.83
2018-09-17T23:18:12.576Z,2.70
2018-09-17T23:20:41.130Z,2.87
2018-09-17T23:23:09.788Z,3.00
2018-09-17T23:25:38.419Z,3.27
2018-09-17T23:28:07.028Z,2.90
2018-09-17T23:30:35.688Z,3.37
2018-09-17T23:33:04.190Z,3.33
2018-09-17T23:35:33.052Z,3.33
2018-09-17T23:38:01.631Z,2.80
2018-09-17T23:40:30.223Z,3.50
2018-09-17T23:42:58.771Z,3.50
2018-09-17T23:45:27.260Z,3.13
2018-09-17T23:47:55.911Z,3.10
2018-09-17T23:50:24.416Z,3.20
2018-09-17T23:52:52.993Z,2.90
2018-09-17T23:55:21.515Z,3.27
2018-09-17T23:57:50.051Z,2.83
